Time;durP1;ratioP1;P1;durP2;ratioP2;P2;SDS_P1;SDS_P2;PMS_P1;PMS_P2;Temp;Humidity;BMP_temperature;BMP_pressure;BME280_temperature;BME280_humidity;BME280_pressure;Samples;Min_cycle;Max_cycle;Signal;HPM_P1;HPM_P2
2022/11/02 00:02:09;;;;;;;8.48;2.55;;;23.40;57.70;;;;;;5085691;28;20039;-77
2022/11/02 00:04:36;;;;;;;13.23;2.50;;;23.40;57.90;;;;;;5085656;28;20414;-80
2022/11/02 00:07:02;;;;;;;7.72;2.53;;;23.40;57.90;;;;;;5081287;28;20158;-82
2022/11/02 00:09:29;;;;;;;9.85;4.03;;;23.30;57.90;;;;;;5078464;28;20064;-82
2022/11/02 00:11:55;;;;;;;8.82;2.78;;;23.30;58.00;;;;;;5083994;28;20028;-83
2022/11/02 00:14:22;;;;;;;10.38;2.97;;;23.30;57.90;;;;;;5082246;28;20046;-83
2022/11/02 00:16:51;;;;;;;9.55;2.10;;;23.30;57.90;;;;;;5086198;28;20028;-83
2022/11/02 00:19:18;;;;;;;6.22;3.33;;;23.30;57.90;;;;;;5078379;28;20417;-86
2022/11/02 00:21:45;;;;;;;6.65;2.63;;;23.30;57.90;;;;;;5088028;28;20378;-86
2022/11/02 00:24:12;;;;;;;9.02;3.10;;;23.30;58.00;;;;;;5090622;28;20036;-88
2022/11/02 00:27:10;;;;;;;13.63;3.25;;;23.20;58.00;;;;;;5082655;28;20012;-83
2022/11/02 00:29:40;;;;;;;8.00;2.67;;;23.20;58.00;;;;;;5089907;28;20106;-83
2022/11/02 00:32:12;;;;;;;12.80;3.25;;;23.20;58.10;;;;;;5079706;28;20379;-82
2022/11/02 00:34:45;;;;;;;4.28;1.65;;;23.20;58.10;;;;;;5080127;28;20040;-84
2022/11/02 00:37:12;;;;;;;8.52;2.72;;;23.20;58.30;;;;;;5046701;28;20041;-82
2022/11/02 00:39:38;;;;;;;10.30;3.22;;;23.20;58.30;;;;;;5046013;28;20033;-82
2022/11/02 00:42:05;;;;;;;11.63;2.95;;;23.20;58.80;;;;;;5047888;28;20032;-81
2022/11/02 00:44:31;;;;;;;8.77;2.53;;;23.20;58.90;;;;;;5047147;28;20041;-85
2022/11/02 00:46:58;;;;;;;8.85;2.58;;;23.10;58.80;;;;;;5046919;28;20033;-82
2022/11/02 00:49:25;;;;;;;10.80;2.47;;;23.10;58.90;;;;;;5048808;28;20013;-82
2022/11/02 00:51:51;;;;;;;12.93;3.28;;;23.10;59.00;;;;;;5046494;28;20118;-84
2022/11/02 00:54:20;;;;;;;15.57;3.30;;;23.10;59.10;;;;;;5050015;28;20576;-82
2022/11/02 00:56:47;;;;;;;14.45;2.95;;;23.10;59.10;;;;;;5029383;28;20065;-80
2022/11/02 00:59:14;;;;;;;9.35;2.83;;;23.10;59.10;;;;;;5048058;28;20025;-80
2022/11/02 01:01:46;;;;;;;11.35;2.92;;;23.10;59.20;;;;;;5046954;28;20519;-78
2022/11/02 01:04:13;;;;;;;17.08;2.45;;;23.10;59.20;;;;;;5047280;28;20200;-79
2022/11/02 01:06:41;;;;;;;7.50;3.15;;;23.10;59.20;;;;;;5047394;28;20743;-79
2022/11/02 01:09:09;;;;;;;35.58;6.15;;;23.10;58.80;;;;;;5111869;27;20521;-78
2022/11/02 01:11:36;;;;;;;15.10;4.15;;;23.10;59.60;;;;;;5081441;28;20024;-81
2022/11/02 01:14:02;;;;;;;9.05;3.33;;;23.10;59.90;;;;;;5080050;28;20032;-81
2022/11/02 01:16:30;;;;;;;14.55;3.45;;;23.00;60.40;;;;;;5085266;28;20081;-80
2022/11/02 01:18:58;;;;;;;27.58;6.18;;;23.00;60.80;;;;;;5080643;28;20024;-80
2022/11/02 01:21:25;;;;;;;17.63;5.00;;;23.00;60.60;;;;;;5077328;28;20501;-81
2022/11/02 01:23:55;;;;;;;11.25;3.08;;;23.00;60.80;;;;;;5086463;28;20369;-82
2022/11/02 01:26:21;;;;;;;17.80;4.18;;;23.00;61.30;;;;;;5084094;28;20046;-80
2022/11/02 01:28:48;;;;;;;7.07;2.40;;;23.00;61.20;;;;;;5084537;28;20024;-80
2022/11/02 01:31:15;;;;;;;16.73;3.63;;;23.00;60.50;;;;;;5079749;28;20024;-81
2022/11/02 01:33:45;;;;;;;8.88;2.28;;;23.00;59.70;;;;;;5079529;28;20470;-81
2022/11/02 01:36:20;;;;;;;14.45;3.72;;;23.00;59.30;;;;;;5079574;28;20052;-81
2022/11/02 01:38:48;;;;;;;8.35;2.45;;;23.00;59.00;;;;;;5082113;28;20120;-81
2022/11/02 01:41:15;;;;;;;11.07;3.40;;;23.00;58.70;;;;;;5076403;28;20052;-82
2022/11/02 01:43:46;;;;;;;7.70;2.53;;;23.00;58.60;;;;;;5081395;28;20024;-82
2022/11/02 01:46:19;;;;;;;5.22;2.10;;;23.00;58.50;;;;;;5083684;28;20032;-82
2022/11/02 01:48:57;;;;;;;7.57;3.47;;;22.90;58.40;;;;;;5079138;28;20020;-80
2022/11/02 01:51:41;;;;;;;11.25;2.72;;;22.90;58.30;;;;;;5080626;28;20363;-82
2022/11/02 01:54:13;;;;;;;20.48;3.20;;;22.90;58.40;;;;;;5078014;28;20031;-79
2022/11/02 01:56:43;;;;;;;10.10;4.70;;;22.90;58.60;;;;;;5089518;28;20079;-81
2022/11/02 01:59:16;;;;;;;12.38;3.00;;;22.90;59.10;;;;;;5079541;28;20024;-81
2022/11/02 02:01:42;;;;;;;11.68;2.50;;;22.90;58.90;;;;;;5082605;28;20508;-81
2022/11/02 02:04:12;;;;;;;6.72;2.58;;;22.80;58.70;;;;;;5088578;28;20040;-81
2022/11/02 02:06:39;;;;;;;16.38;3.63;;;22.80;58.60;;;;;;5086442;28;20379;-82
2022/11/02 02:09:09;;;;;;;10.27;2.55;;;22.80;59.40;;;;;;5088333;28;20070;-81
2022/11/02 02:11:39;;;;;;;10.88;2.40;;;22.70;59.50;;;;;;5082534;28;20708;-81
2022/11/02 02:14:08;;;;;;;14.43;2.60;;;22.70;59.30;;;;;;5082228;28;20062;-81
2022/11/02 02:16:55;;;;;;;15.68;3.75;;;22.70;59.20;;;;;;5081024;28;20020;-81
2022/11/02 02:19:46;;;;;;;8.27;3.17;;;22.70;59.30;;;;;;5074301;28;20024;-81
2022/11/02 02:22:24;;;;;;;15.40;3.97;;;22.70;59.10;;;;;;5089041;28;20024;-81
2022/11/02 02:25:12;;;;;;;11.48;2.80;;;22.70;59.00;;;;;;5081508;28;20308;-81
2022/11/02 02:28:00;;;;;;;8.18;3.30;;;22.60;58.90;;;;;;5076860;28;20020;-81
2022/11/02 02:30:31;;;;;;;12.82;3.25;;;22.60;59.00;;;;;;5079531;28;20051;-82
2022/11/02 02:33:09;;;;;;;7.28;3.42;;;22.60;59.30;;;;;;5079046;28;20505;-82
2022/11/02 02:35:51;;;;;;;13.00;3.50;;;22.60;59.50;;;;;;5078141;28;20048;-82
2022/11/02 02:38:33;;;;;;;22.17;3.60;;;22.60;59.60;;;;;;5090691;28;20116;-84
2022/11/02 02:41:12;;;;;;;15.98;3.60;;;22.60;59.60;;;;;;5085988;28;20016;-83
2022/11/02 02:43:54;;;;;;;12.30;3.75;;;22.60;59.50;;;;;;5082742;28;20969;-81
2022/11/02 02:46:36;;;;;;;11.38;3.55;;;22.60;59.50;;;;;;5080540;28;20417;-82
2022/11/02 02:49:05;;;;;;;13.65;3.20;;;22.50;59.40;;;;;;5085728;28;20016;-82
2022/11/02 02:51:33;;;;;;;9.25;2.80;;;22.50;59.40;;;;;;5088791;28;20012;-81
2022/11/02 02:54:14;;;;;;;6.95;2.72;;;22.50;60.10;;;;;;5091905;28;20024;-81
2022/11/02 02:56:49;;;;;;;12.25;3.88;;;22.50;59.50;;;;;;5086289;28;20085;-82
2022/11/02 02:59:22;;;;;;;15.93;3.30;;;22.50;59.50;;;;;;5087031;28;20012;-81
2022/11/02 03:01:50;;;;;;;8.77;3.17;;;22.50;59.60;;;;;;5085793;28;20026;-81
2022/11/02 03:04:16;;;;;;;7.90;3.15;;;22.50;59.70;;;;;;5082454;28;20054;-84
2022/11/02 03:06:51;;;;;;;9.40;3.63;;;22.40;59.80;;;;;;5082877;28;20031;-81
2022/11/02 03:09:24;;;;;;;7.65;2.63;;;22.40;59.90;;;;;;5085240;28;20020;-82
2022/11/02 03:12:08;;;;;;;11.07;3.22;;;22.40;59.90;;;;;;5085420;28;20525;-83
2022/11/02 03:14:46;;;;;;;14.07;3.65;;;22.40;60.10;;;;;;5083142;28;20031;-83
2022/11/02 03:17:19;;;;;;;10.70;2.70;;;22.40;60.10;;;;;;5082944;28;20025;-83
2022/11/02 03:19:48;;;;;;;12.70;3.13;;;22.40;60.20;;;;;;5088048;28;20024;-82
2022/11/02 03:22:44;;;;;;;13.20;2.75;;;22.40;60.30;;;;;;5085974;28;20359;-83
2022/11/02 03:25:29;;;;;;;9.40;3.20;;;22.30;60.30;;;;;;5075972;28;20044;-84
2022/11/02 03:28:14;;;;;;;9.75;3.08;;;22.30;60.60;;;;;;5095697;28;20136;-84
2022/11/02 03:30:56;;;;;;;10.80;2.83;;;22.30;60.60;;;;;;5086692;28;20036;-83
2022/11/02 03:33:33;;;;;;;15.75;4.38;;;22.20;60.50;;;;;;5089889;28;20044;-84
2022/11/02 03:36:08;;;;;;;17.05;4.30;;;22.20;60.50;;;;;;5043814;28;20051;-82
2022/11/02 03:38:43;;;;;;;8.82;3.08;;;22.30;60.60;;;;;;5044859;28;20380;-82
2022/11/02 03:41:10;;;;;;;;;;;22.20;60.60;;;;;;5042860;28;20138;-84
2022/11/02 03:43:39;;;;;;;8.80;3.38;;;22.20;60.50;;;;;;5040288;28;19955;-82
2022/11/02 03:46:09;;;;;;;10.82;4.32;;;22.20;60.50;;;;;;5042025;28;20028;-80
2022/11/02 03:48:43;;;;;;;13.32;3.28;;;22.20;60.60;;;;;;5048842;28;20025;-85
2022/11/02 03:51:13;;;;;;;9.40;3.58;;;22.20;60.70;;;;;;5045028;28;20061;-80
2022/11/02 03:54:11;;;;;;;10.80;3.08;;;22.20;60.70;;;;;;5046919;28;20032;-81
2022/11/02 03:56:45;;;;;;;15.05;3.45;;;22.20;60.70;;;;;;5042856;28;20072;-79
2022/11/02 03:59:14;;;;;;;13.43;3.85;;;22.20;60.70;;;;;;5042224;28;20020;-77
2022/11/02 04:01:47;;;;;;;8.15;3.00;;;22.20;60.70;;;;;;5042483;28;20025;-76
2022/11/02 04:04:14;;;;;;;16.45;3.60;;;22.20;60.70;;;;;;5041723;28;20408;-77
2022/11/02 04:06:43;;;;;;;22.02;7.30;;;22.20;60.80;;;;;;5043166;28;20030;-80
2022/11/02 04:09:11;;;;;;;22.15;7.50;;;22.20;62.40;;;;;;5041360;28;20025;-79
2022/11/02 04:14:37;;;;;;;19.15;8.45;;;22.20;65.00;;;;;;5044522;28;20098;-82
2022/11/02 04:20:32;;;;;;;15.80;3.97;;;22.20;66.20;;;;;;5039858;28;20040;-78
2022/11/02 04:27:03;;;;;;;11.15;5.88;;;22.20;66.70;;;;;;5044826;28;20408;-83
2022/11/02 04:30:10;;;;;;;12.30;4.45;;;22.20;66.80;;;;;;5041368;28;20025;-77
2022/11/02 04:35:26;;;;;;;19.90;4.47;;;22.10;66.20;;;;;;5075712;28;20097;-78
2022/11/02 04:40:38;;;;;;;7.75;3.15;;;22.10;65.90;;;;;;5078374;28;20039;-78
2022/11/02 04:43:04;;;;;;;6.68;3.30;;;22.00;65.60;;;;;;5078835;28;20024;-79
2022/11/02 04:45:31;;;;;;;12.77;5.20;;;22.10;66.40;;;;;;5075993;28;20009;-76
2022/11/02 04:48:06;;;;;;;7.15;2.90;;;22.10;65.60;;;;;;5081008;28;20073;-76
2022/11/02 04:50:34;;;;;;;10.18;3.08;;;22.10;65.50;;;;;;5086616;28;20027;-79
2022/11/02 04:53:02;;;;;;;8.50;2.97;;;22.10;65.50;;;;;;5080290;28;20063;-79
2022/11/02 04:55:29;;;;;;;7.45;2.85;;;22.10;65.30;;;;;;5080823;28;20054;-79
2022/11/02 04:57:56;;;;;;;13.70;3.50;;;22.10;65.40;;;;;;5079927;28;20119;-79
2022/11/02 05:00:23;;;;;;;11.77;4.30;;;22.10;65.40;;;;;;5079970;28;20020;-79
2022/11/02 05:02:50;;;;;;;31.38;4.82;;;22.10;65.50;;;;;;5083561;28;20061;-78
2022/11/02 05:05:17;;;;;;;21.95;3.72;;;22.10;65.60;;;;;;5082285;28;20663;-80
2022/11/02 05:07:44;;;;;;;14.35;3.13;;;22.10;65.80;;;;;;5079285;28;20024;-80
2022/11/02 05:10:11;;;;;;;11.52;3.00;;;22.20;66.20;;;;;;5084672;28;20020;-82
2022/11/02 05:12:37;;;;;;;11.13;4.75;;;22.20;66.20;;;;;;5080604;28;20472;-79
2022/11/02 05:15:04;;;;;;;30.60;7.10;;;22.20;66.10;;;;;;5080164;28;20036;-78
2022/11/02 05:17:32;;;;;;;21.60;3.75;;;22.20;66.00;;;;;;5082045;28;20093;-78
2022/11/02 05:19:59;;;;;;;12.15;4.88;;;22.20;66.30;;;;;;5085610;28;20032;-79
2022/11/02 05:22:25;;;;;;;15.65;4.10;;;22.20;67.00;;;;;;5078629;28;20020;-79
2022/11/02 05:24:52;;;;;;;12.90;3.67;;;22.20;66.20;;;;;;5080788;28;20131;-79
2022/11/02 05:27:18;;;;;;;14.18;3.22;;;22.30;66.30;;;;;;5087337;28;20021;-78
2022/11/02 05:29:44;;;;;;;21.08;4.22;;;22.30;66.20;;;;;;5081321;28;20059;-78
2022/11/02 05:32:11;;;;;;;8.38;2.58;;;22.30;66.00;;;;;;5076602;28;20021;-78
2022/11/02 05:34:37;;;;;;;17.65;3.15;;;22.40;66.20;;;;;;5078705;28;20603;-77
2022/11/02 05:37:04;;;;;;;18.65;5.15;;;22.40;66.10;;;;;;5083105;28;20390;-78
2022/11/02 05:39:30;;;;;;;12.02;3.72;;;22.40;65.70;;;;;;5080984;28;20020;-79
2022/11/02 05:41:57;;;;;;;15.77;5.35;;;22.40;65.20;;;;;;5078700;28;20035;-78
2022/11/02 05:44:24;;;;;;;17.45;4.15;;;22.50;65.30;;;;;;5076661;28;20066;-79
2022/11/02 05:46:50;;;;;;;18.90;5.45;;;22.50;65.10;;;;;;5085613;28;20024;-78
2022/11/02 05:49:17;;;;;;;10.38;3.45;;;22.50;65.10;;;;;;5079506;28;20099;-79
2022/11/02 05:51:44;;;;;;;13.80;4.07;;;22.50;64.80;;;;;;5075545;28;20048;-78
2022/11/02 05:54:10;;;;;;;9.48;3.00;;;22.60;64.70;;;;;;5114461;27;20033;-78
2022/11/02 05:56:37;;;;;;;16.08;4.05;;;22.60;64.70;;;;;;5082221;28;20020;-79
2022/11/02 05:59:03;;;;;;;16.42;4.20;;;22.60;64.60;;;;;;5080018;28;20016;-78
2022/11/02 06:01:30;;;;;;;29.40;6.15;;;22.70;64.30;;;;;;5085168;28;20020;-79
2022/11/02 06:03:56;;;;;;;20.50;4.53;;;22.70;64.40;;;;;;5085244;28;20028;-78
2022/11/02 06:06:23;;;;;;;29.25;6.40;;;22.70;64.60;;;;;;5078800;28;20417;-78
2022/11/02 06:08:50;;;;;;;27.52;7.35;;;22.80;64.30;;;;;;5081657;28;20102;-79
2022/11/02 06:11:19;;;;;;;19.67;3.30;;;22.80;64.10;;;;;;5080506;28;20114;-78
2022/11/02 06:13:49;;;;;;;19.27;3.63;;;22.80;63.90;;;;;;5076171;28;20032;-78
2022/11/02 06:16:17;;;;;;;13.23;2.95;;;22.90;64.10;;;;;;5084736;28;20020;-79
2022/11/02 06:18:44;;;;;;;22.13;5.32;;;22.90;64.10;;;;;;5083329;28;20035;-78
2022/11/02 06:21:11;;;;;;;10.30;2.75;;;22.90;63.90;;;;;;5083524;28;20019;-77
2022/11/02 06:23:38;;;;;;;7.15;3.05;;;22.90;63.60;;;;;;5080890;28;20047;-77
2022/11/02 06:26:05;;;;;;;18.88;3.28;;;23.00;63.20;;;;;;5081461;28;20103;-78
2022/11/02 06:28:31;;;;;;;23.88;3.67;;;23.00;63.10;;;;;;5082916;28;20035;-79
2022/11/02 06:30:58;;;;;;;37.95;8.88;;;23.00;62.90;;;;;;5086801;28;20039;-78
2022/11/02 06:33:25;;;;;;;11.15;3.22;;;23.10;62.80;;;;;;5073598;28;20103;-78
2022/11/02 06:35:52;;;;;;;10.38;2.72;;;23.10;62.60;;;;;;5076424;28;20028;-78
2022/11/02 06:38:20;;;;;;;13.60;3.13;;;23.10;62.30;;;;;;5084339;28;20498;-78
2022/11/02 06:41:05;;;;;;;17.55;5.15;;;23.10;62.10;;;;;;5084533;28;20028;-78
2022/11/02 06:43:33;;;;;;;13.68;3.05;;;23.10;61.80;;;;;;5082075;28;20040;-79
2022/11/02 06:45:59;;;;;;;9.00;3.10;;;23.10;61.70;;;;;;5085175;28;20036;-78
2022/11/02 06:48:27;;;;;;;16.40;4.40;;;23.10;61.70;;;;;;5090566;28;20425;-79
2022/11/02 06:50:54;;;;;;;14.52;5.15;;;23.10;61.80;;;;;;5086022;28;20024;-79
2022/11/02 06:53:21;;;;;;;15.35;5.13;;;23.10;62.00;;;;;;5085809;28;20020;-79
2022/11/02 06:55:57;;;;;;;12.30;3.30;;;23.10;62.10;;;;;;5078638;28;20039;-78
2022/11/02 06:58:25;;;;;;;9.52;2.75;;;23.10;62.30;;;;;;5080012;28;20048;-79
2022/11/02 07:01:08;;;;;;;11.90;3.70;;;23.10;62.40;;;;;;5086112;28;20021;-79
2022/11/02 07:03:35;;;;;;;9.82;3.08;;;23.00;62.50;;;;;;5078525;28;20043;-79
2022/11/02 07:06:02;;;;;;;15.65;3.78;;;23.10;62.70;;;;;;5082068;28;20036;-79
2022/11/02 07:08:29;;;;;;;17.00;4.05;;;23.00;62.80;;;;;;5079460;28;20030;-79
2022/11/02 07:10:56;;;;;;;8.35;3.22;;;23.00;62.80;;;;;;5083704;28;20042;-79
2022/11/02 07:13:22;;;;;;;15.00;3.70;;;23.00;62.80;;;;;;5079908;28;20438;-78
2022/11/02 07:15:53;;;;;;;9.30;3.42;;;23.00;62.80;;;;;;5079582;28;20019;-78
2022/11/02 07:18:20;;;;;;;9.27;4.45;;;23.00;63.00;;;;;;5077664;28;20028;-79
2022/11/02 07:20:53;;;;;;;18.35;5.15;;;23.00;63.10;;;;;;5076124;28;20028;-79
2022/11/02 07:23:22;;;;;;;19.00;3.13;;;23.00;63.40;;;;;;5078529;28;20020;-79
2022/11/02 07:25:49;;;;;;;11.88;2.47;;;23.00;63.80;;;;;;5077285;28;20496;-79
2022/11/02 07:28:15;;;;;;;30.55;4.82;;;23.00;64.00;;;;;;5077570;28;20032;-79
2022/11/02 07:30:42;;;;;;;13.52;3.40;;;23.00;64.40;;;;;;5081722;28;20135;-78
2022/11/02 07:33:08;;;;;;;23.00;5.78;;;22.90;64.80;;;;;;5080905;28;20483;-79
2022/11/02 07:35:35;;;;;;;12.93;4.05;;;22.90;65.00;;;;;;5085163;28;20036;-78
2022/11/02 07:38:04;;;;;;;16.67;5.93;;;22.90;65.10;;;;;;5083107;28;20338;-79
2022/11/02 07:40:33;;;;;;;16.10;5.82;;;22.80;66.10;;;;;;5085707;28;20016;-79
2022/11/02 07:43:00;;;;;;;13.93;4.15;;;22.80;66.50;;;;;;5085373;28;20359;-79
2022/11/02 07:45:28;;;;;;;12.15;4.63;;;22.80;67.00;;;;;;5081758;28;20093;-77
2022/11/02 07:47:55;;;;;;;20.75;5.93;;;22.80;66.80;;;;;;5086577;28;20483;-78
2022/11/02 07:50:23;;;;;;;15.93;4.10;;;22.80;66.60;;;;;;5084924;28;20039;-77
2022/11/02 07:52:52;;;;;;;14.45;4.70;;;22.80;66.70;;;;;;5082624;28;20032;-77
2022/11/02 07:55:24;;;;;;;15.38;4.03;;;22.80;67.10;;;;;;5083242;28;20462;-77
2022/11/02 07:57:56;;;;;;;15.18;3.70;;;22.80;68.60;;;;;;5087672;28;20114;-77
2022/11/02 08:00:24;;;;;;;27.00;5.63;;;22.80;68.90;;;;;;5079206;28;20040;-78
2022/11/02 08:02:57;;;;;;;30.35;4.85;;;22.80;69.60;;;;;;5075770;28;20490;-78
2022/11/02 08:05:25;;;;;;;22.88;5.57;;;22.80;70.20;;;;;;5083913;28;20056;-78
2022/11/02 08:08:06;;;;;;;15.05;4.97;;;22.80;70.10;;;;;;5086259;28;20024;-78
2022/11/02 08:10:34;;;;;;;16.67;4.07;;;22.90;70.60;;;;;;5085187;28;20556;-77
2022/11/02 08:13:00;;;;;;;26.33;7.38;;;22.90;70.30;;;;;;5080912;28;20107;-78
2022/11/02 08:15:27;;;;;;;30.52;5.10;;;22.90;70.40;;;;;;5085345;28;20024;-78
2022/11/02 08:18:24;;;;;;;45.08;7.68;;;22.90;70.30;;;;;;5082152;28;20467;-79
2022/11/02 08:20:51;;;;;;;16.50;4.78;;;22.90;70.20;;;;;;5078424;28;20036;-78
2022/11/02 08:23:19;;;;;;;8.73;3.42;;;22.90;70.10;;;;;;5084108;28;20028;-78
2022/11/02 08:25:48;;;;;;;13.43;4.22;;;22.90;69.90;;;;;;5081603;28;20036;-79
2022/11/02 08:28:18;;;;;;;28.23;4.65;;;22.90;69.90;;;;;;5084357;28;20035;-79
2022/11/02 08:30:44;;;;;;;16.63;4.82;;;22.90;69.60;;;;;;5082209;28;20020;-80
2022/11/02 08:33:14;;;;;;;16.40;4.47;;;22.90;69.40;;;;;;5080812;28;20403;-80
2022/11/02 08:35:42;;;;;;;18.05;6.65;;;22.90;69.40;;;;;;5082444;28;20483;-80
2022/11/02 08:38:10;;;;;;;19.02;4.75;;;22.80;69.30;;;;;;5085509;28;20043;-78
2022/11/02 08:40:36;;;;;;;11.00;3.97;;;22.80;69.20;;;;;;5079732;28;20067;-78
2022/11/02 08:43:06;;;;;;;13.48;3.55;;;22.80;68.70;;;;;;5075992;28;20020;-78
2022/11/02 08:48:50;;;;;;;11.90;4.57;;;22.70;67.70;;;;;;5025616;28;20041;-78
2022/11/02 08:51:16;;;;;;;18.80;4.77;;;22.70;67.50;;;;;;5075510;28;20395;-79
2022/11/02 08:53:46;;;;;;;11.30;3.95;;;22.70;67.50;;;;;;5086735;28;20117;-79
2022/11/02 08:56:12;;;;;;;10.82;3.83;;;22.70;67.40;;;;;;5088311;28;20099;-79
2022/11/02 08:58:39;;;;;;;11.82;3.90;;;22.70;67.30;;;;;;5076584;28;20116;-78
2022/11/02 09:01:05;;;;;;;12.73;3.92;;;22.60;67.20;;;;;;5087162;28;20296;-77
2022/11/02 09:03:32;;;;;;;20.73;4.43;;;22.60;67.20;;;;;;5083684;28;20113;-78
2022/11/02 09:06:01;;;;;;;22.48;5.80;;;22.60;67.10;;;;;;5082740;28;20434;-77
2022/11/02 09:08:28;;;;;;;13.90;3.97;;;22.60;67.10;;;;;;5075701;28;20592;-76
2022/11/02 09:11:01;;;;;;;17.02;4.47;;;22.50;67.50;;;;;;5084184;28;20058;-77
2022/11/02 09:13:30;;;;;;;13.38;4.47;;;22.50;67.30;;;;;;5085134;28;20070;-77
2022/11/02 09:15:59;;;;;;;24.48;7.25;;;22.50;67.30;;;;;;5084114;28;20028;-76
2022/11/02 09:18:25;;;;;;;20.08;4.88;;;22.50;67.50;;;;;;5081816;28;20008;-76
2022/11/02 09:20:52;;;;;;;14.20;3.53;;;22.50;67.40;;;;;;5076748;28;20061;-75
2022/11/02 09:23:19;;;;;;;15.93;4.40;;;22.50;67.30;;;;;;5078446;28;20536;-74
2022/11/02 09:25:46;;;;;;;21.00;5.60;;;22.40;67.70;;;;;;5083728;28;20012;-72
2022/11/02 09:28:14;;;;;;;11.18;3.58;;;22.40;68.30;;;;;;5075606;28;20032;-73
2022/11/02 09:30:41;;;;;;;14.02;4.18;;;22.40;68.80;;;;;;5079496;28;20027;-72
2022/11/02 09:33:08;;;;;;;16.88;4.55;;;22.40;68.90;;;;;;5082030;28;20016;-73
2022/11/02 09:35:42;;;;;;;12.80;4.05;;;22.30;69.20;;;;;;5080017;28;20502;-73
2022/11/02 09:38:12;;;;;;;15.10;4.10;;;22.30;69.40;;;;;;5085858;28;20028;-73
2022/11/02 09:40:45;;;;;;;15.63;4.45;;;22.30;69.70;;;;;;5085072;28;20040;-73
2022/11/02 09:43:26;;;;;;;19.45;6.57;;;22.30;69.90;;;;;;5079436;28;20032;-74
2022/11/02 09:45:59;;;;;;;30.15;5.55;;;22.20;70.80;;;;;;5080839;28;20035;-74
2022/11/02 09:49:00;;;;;;;14.73;6.40;;;22.30;70.50;;;;;;5082947;28;20070;-73
2022/11/02 09:51:37;;;;;;;17.15;5.13;;;22.20;71.30;;;;;;5084665;28;20421;-74
2022/11/02 09:54:36;;;;;;;17.25;5.32;;;22.20;71.70;;;;;;5085086;28;20118;-74
2022/11/02 09:57:19;;;;;;;16.10;5.00;;;22.30;73.30;;;;;;5064926;28;20040;-73
2022/11/02 09:59:49;;;;;;;16.45;4.85;;;22.20;72.90;;;;;;5080320;28;20074;-73
2022/11/02 10:02:43;;;;;;;32.35;5.10;;;22.20;72.80;;;;;;5087901;28;20540;-74
2022/11/02 10:05:22;;;;;;;15.77;4.75;;;22.20;73.90;;;;;;5078608;28;20036;-74
2022/11/02 10:08:23;;;;;;;15.43;4.28;;;22.20;74.90;;;;;;5087037;28;20020;-75
2022/11/02 10:10:56;;;;;;;13.35;4.72;;;22.20;74.70;;;;;;5041354;28;20044;-75
2022/11/02 10:13:41;;;;;;;17.60;5.13;;;22.20;74.20;;;;;;5081299;28;20103;-75
2022/11/02 10:16:20;;;;;;;13.27;5.22;;;22.10;74.00;;;;;;5078342;28;20031;-75
2022/11/02 10:18:49;;;;;;;14.05;4.80;;;22.10;74.00;;;;;;5083387;28;20016;-73
2022/11/02 10:21:22;;;;;;;16.10;4.93;;;22.10;74.20;;;;;;5080343;28;20016;-76
2022/11/02 10:23:54;;;;;;;17.30;5.55;;;22.10;74.60;;;;;;5087187;28;20077;-75
2022/11/02 10:26:30;;;;;;;18.35;3.97;;;22.10;75.40;;;;;;5076437;28;20146;-75
2022/11/02 10:29:03;;;;;;;13.82;4.78;;;22.10;76.70;;;;;;5079779;28;20020;-76
2022/11/02 10:31:32;;;;;;;13.90;4.47;;;22.10;77.20;;;;;;5082152;28;20668;-75
2022/11/02 10:34:26;;;;;;;17.40;5.72;;;22.10;77.60;;;;;;5078579;28;20579;-76
2022/11/02 10:36:55;;;;;;;16.60;5.05;;;22.10;76.90;;;;;;5079096;28;20482;-77
2022/11/02 10:40:06;;;;;;;19.10;7.32;;;22.10;76.20;;;;;;5080760;28;20468;-75
2022/11/02 10:42:44;;;;;;;17.75;7.15;;;22.10;75.70;;;;;;5072253;28;20040;-76
2022/11/02 10:45:58;;;;;;;15.73;4.40;;;22.10;76.10;;;;;;5086581;28;20032;-77
2022/11/02 10:48:34;;;;;;;19.85;5.15;;;22.10;75.40;;;;;;5081207;28;20017;-77
2022/11/02 10:51:12;;;;;;;13.65;5.10;;;22.10;75.20;;;;;;5079277;28;20024;-74
2022/11/02 10:53:46;;;;;;;12.15;4.03;;;22.10;75.10;;;;;;5079422;28;20039;-76
2022/11/02 10:56:20;;;;;;;17.52;4.53;;;22.10;75.00;;;;;;5084812;28;20016;-77
2022/11/02 10:59:02;;;;;;;23.05;5.53;;;22.10;75.10;;;;;;5083701;28;20028;-76
2022/11/02 11:01:30;;;;;;;23.95;7.68;;;22.10;75.10;;;;;;5080261;28;20059;-75
2022/11/02 11:03:58;;;;;;;17.33;4.70;;;22.20;75.20;;;;;;5077417;28;20040;-74
2022/11/02 11:06:43;;;;;;;16.83;5.85;;;22.20;75.00;;;;;;5083064;28;20016;-77
2022/11/02 11:09:31;;;;;;;19.40;5.38;;;22.20;74.90;;;;;;5076412;28;20030;-76
2022/11/02 11:12:06;;;;;;;20.67;5.70;;;22.20;74.70;;;;;;5088523;28;20033;-75
2022/11/02 11:14:36;;;;;;;;;;;22.10;74.50;;;;;;5090590;28;20474;-75
2022/11/02 11:17:39;;;;;;;16.30;5.55;;;22.10;74.50;;;;;;5087136;28;19908;-74
2022/11/02 11:20:41;;;;;;;14.90;4.28;;;22.10;74.50;;;;;;5083968;28;20386;-76
2022/11/02 11:23:21;;;;;;;17.23;5.05;;;22.10;74.40;;;;;;5082134;28;20028;-76
2022/11/02 11:25:56;;;;;;;32.15;7.32;;;22.10;74.30;;;;;;5087395;28;20043;-75
2022/11/02 11:28:31;;;;;;;15.90;5.70;;;22.10;74.40;;;;;;5084148;28;20032;-75
2022/11/02 11:31:15;;;;;;;26.65;8.65;;;22.10;75.20;;;;;;5082395;28;20024;-75
2022/11/02 11:33:53;;;;;;;20.70;6.10;;;22.10;75.50;;;;;;5082909;28;20576;-69
2022/11/02 11:36:26;;;;;;;24.70;6.60;;;22.10;76.00;;;;;;5080691;28;20052;-72
2022/11/02 11:38:59;;;;;;;16.23;6.15;;;22.10;76.40;;;;;;5083640;28;20028;-75
2022/11/02 11:41:27;;;;;;;26.48;6.85;;;22.10;76.70;;;;;;5081905;28;20463;-77
2022/11/02 11:43:54;;;;;;;29.15;7.82;;;22.10;77.10;;;;;;5088213;28;20040;-77
2022/11/02 11:46:21;;;;;;;18.98;5.38;;;22.10;77.30;;;;;;5088140;28;20020;-74
2022/11/02 11:48:47;;;;;;;15.15;4.95;;;22.10;77.50;;;;;;5083758;28;20091;-77
2022/11/02 11:51:28;;;;;;;19.00;5.18;;;22.20;77.80;;;;;;5085646;28;20490;-76
2022/11/02 11:54:26;;;;;;;24.33;9.02;;;22.20;78.00;;;;;;5087817;28;20032;-75
2022/11/02 11:56:55;;;;;;;23.77;5.88;;;22.10;78.30;;;;;;5088735;28;20111;-74
2022/11/02 12:00:00;;;;;;;19.58;7.40;;;22.20;79.20;;;;;;5086586;28;20024;-74
2022/11/02 12:02:31;;;;;;;15.52;7.00;;;22.20;79.30;;;;;;5070503;28;20040;-71
2022/11/02 12:05:16;;;;;;;19.27;7.20;;;22.20;79.80;;;;;;5082746;28;20079;-72
2022/11/02 12:07:52;;;;;;;22.55;7.63;;;22.10;79.90;;;;;;5078887;28;20028;-73
2022/11/02 12:10:28;;;;;;;21.80;8.15;;;22.10;79.90;;;;;;5090343;28;20434;-73
2022/11/02 12:13:11;;;;;;;26.35;8.63;;;22.10;80.00;;;;;;5087200;28;20020;-72
2022/11/02 12:16:01;;;;;;;21.13;7.35;;;22.10;80.30;;;;;;5083455;28;20020;-75
2022/11/02 12:18:53;;;;;;;29.70;8.23;;;22.10;80.80;;;;;;5086829;28;20062;-75
2022/11/02 12:21:29;;;;;;;28.60;8.98;;;22.10;81.10;;;;;;5077957;28;20033;-75
2022/11/02 12:24:27;;;;;;;22.35;6.63;;;22.10;81.30;;;;;;5085326;28;20047;-76
2022/11/02 12:27:18;;;;;;;18.67;7.18;;;22.10;81.50;;;;;;5060000;28;20039;-77
2022/11/02 12:30:11;;;;;;;22.70;8.13;;;22.10;81.70;;;;;;5088717;28;20387;-77
2022/11/02 12:32:41;;;;;;;30.48;8.35;;;22.20;81.90;;;;;;5077247;28;20033;-76
2022/11/02 12:35:32;;;;;;;23.17;8.00;;;22.20;82.20;;;;;;5084532;28;20037;-76
2022/11/02 12:38:24;;;;;;;15.93;8.02;;;22.20;82.30;;;;;;5078950;28;20028;-75
2022/11/02 12:41:12;;;;;;;17.23;7.75;;;22.30;82.70;;;;;;5084287;28;20032;-75
2022/11/02 12:43:49;;;;;;;19.85;8.35;;;22.40;83.00;;;;;;5081636;28;20104;-77
2022/11/02 12:46:39;;;;;;;22.50;7.80;;;22.50;83.20;;;;;;5078777;28;20059;-76
2022/11/02 12:49:26;;;;;;;21.40;8.73;;;22.60;83.60;;;;;;5083737;28;20052;-76
2022/11/02 12:52:26;;;;;;;23.55;8.30;;;22.70;83.70;;;;;;5086446;28;20078;-78
2022/11/02 12:54:56;;;;;;;21.63;8.27;;;22.80;83.90;;;;;;5080426;28;20056;-78
2022/11/02 12:57:26;;;;;;;19.55;9.65;;;22.90;84.10;;;;;;5080086;28;20020;-77
2022/11/02 12:59:59;;;;;;;16.90;8.35;;;22.90;84.20;;;;;;5087421;28;20028;-77
2022/11/02 13:02:54;;;;;;;24.90;6.97;;;23.00;84.40;;;;;;5084626;28;20017;-77
2022/11/02 13:05:33;;;;;;;18.17;8.98;;;23.10;84.40;;;;;;5078399;28;20084;-77
2022/11/02 13:08:11;;;;;;;17.58;7.32;;;23.10;84.40;;;;;;5083458;28;20565;-77
2022/11/02 13:10:46;;;;;;;17.67;6.43;;;23.20;84.40;;;;;;5085330;28;20542;-77
2022/11/02 13:13:20;;;;;;;20.95;8.18;;;23.30;84.40;;;;;;5082336;28;20485;-77
2022/11/02 13:15:48;;;;;;;12.87;5.83;;;23.40;84.10;;;;;;5084829;28;20085;-78
2022/11/02 13:18:28;;;;;;;17.88;6.97;;;23.40;83.90;;;;;;5086276;28;20020;-78
2022/11/02 13:21:01;;;;;;;17.20;6.55;;;23.50;83.60;;;;;;5083044;28;20024;-77
2022/11/02 13:23:37;;;;;;;13.30;6.30;;;23.60;83.40;;;;;;5086043;28;20493;-77
2022/11/02 13:26:43;;;;;;;16.52;7.30;;;23.70;83.10;;;;;;5088122;28;20038;-77
2022/11/02 13:29:47;;;;;;;12.10;5.22;;;23.70;82.80;;;;;;5053424;28;20544;-77